createdAt,value
2023-08-29T01:22:03.459Z,13.88
2023-08-29T01:24:39.396Z,13.84
2023-08-29T01:27:09.878Z,13.87
2023-08-29T01:29:47.533Z,13.87
2023-08-29T01:32:17.045Z,13.84
2023-08-29T01:34:45.594Z,13.74
2023-08-29T01:37:13.911Z,13.81
2023-08-29T01:39:42.199Z,13.85
2023-08-29T01:42:12.204Z,13.83
2023-08-29T01:49:37.388Z,13.86
2023-08-29T01:52:07.605Z,13.84
2023-08-29T01:54:35.718Z,13.86
2023-08-29T01:57:05.406Z,13.86
2023-08-29T01:59:35.470Z,13.88
2023-08-29T02:02:04.330Z,13.85
2023-08-29T02:04:32.338Z,13.86
2023-08-29T02:07:00.287Z,13.85
2023-08-29T02:09:28.202Z,13.85
2023-08-29T02:11:56.611Z,13.87
2023-08-29T02:14:26.847Z,13.87
2023-08-29T02:16:56.280Z,13.89
2023-08-29T02:19:24.257Z,13.86
2023-08-29T02:21:52.136Z,13.86
2023-08-29T02:24:20.398Z,13.86
2023-08-29T02:26:49.095Z,13.87
2023-08-29T02:29:19.098Z,13.88
2023-08-29T02:31:47.556Z,13.80
2023-08-29T02:34:18.029Z,13.88
2023-08-29T02:36:46.951Z,13.84
2023-08-29T02:39:14.842Z,13.85
2023-08-29T02:41:42.740Z,13.84
2023-08-29T02:44:10.821Z,13.84
2023-08-29T02:46:40.422Z,13.81
2023-08-29T02:49:08.406Z,13.85
2023-08-29T02:51:37.715Z,13.82
2023-08-29T02:54:07.361Z,13.82
2023-08-29T02:56:35.439Z,13.86
2023-08-29T02:59:03.341Z,13.88
2023-08-29T03:01:31.323Z,13.75
2023-08-29T03:03:59.728Z,13.84
2023-08-29T03:06:27.606Z,13.82
2023-08-29T03:08:57.430Z,13.81
2023-08-29T03:11:25.331Z,13.89
2023-08-29T03:13:53.237Z,13.81
2023-08-29T03:16:21.606Z,13.83
2023-08-29T03:18:51.410Z,13.76
2023-08-29T03:21:20.343Z,13.81
2023-08-29T03:23:48.350Z,13.82
2023-08-29T03:26:18.241Z,13.83
2023-08-29T03:28:46.775Z,13.78
2023-08-29T03:31:16.554Z,13.84
2023-08-29T03:33:46.335Z,13.84
2023-08-29T03:36:15.972Z,13.83
2023-08-29T03:38:44.471Z,13.81
2023-08-29T03:41:12.552Z,13.84
2023-08-29T03:43:41.790Z,13.85
2023-08-29T03:46:11.327Z,13.85
2023-08-29T03:48:40.203Z,13.80
2023-08-29T03:51:08.538Z,13.79
2023-08-29T03:53:38.307Z,13.79
2023-08-29T03:56:11.627Z,13.82
2023-08-29T03:58:41.016Z,13.75
2023-08-29T04:01:12.858Z,13.73
2023-08-29T04:03:41.110Z,13.76
2023-08-29T04:06:09.220Z,13.72
2023-08-29T04:08:37.147Z,13.71
2023-08-29T04:11:05.289Z,13.79
2023-08-29T04:13:34.860Z,13.73
2023-08-29T04:16:05.123Z,13.67
2023-08-29T04:18:33.262Z,13.71
2023-08-29T04:21:03.230Z,13.71
2023-08-29T04:23:31.177Z,13.62
2023-08-29T04:26:00.626Z,13.69
2023-08-29T04:28:28.521Z,13.70
2023-08-29T04:30:56.458Z,13.78
2023-08-29T04:33:26.831Z,13.72
2023-08-29T04:35:55.937Z,13.70
2023-08-29T04:38:23.720Z,13.66
2023-08-29T04:40:54.919Z,13.71
2023-08-29T04:43:23.252Z,13.72
2023-08-29T04:45:52.247Z,13.72
2023-08-29T04:48:20.532Z,13.72
2023-08-29T04:50:50.799Z,13.75
2023-08-29T04:53:19.224Z,13.69
2023-08-29T04:55:47.389Z,13.70
2023-08-29T04:58:15.646Z,13.61
2023-08-29T05:00:43.519Z,13.62
2023-08-29T05:03:12.132Z,13.59
2023-08-29T05:05:40.649Z,13.60
2023-08-29T05:08:12.018Z,13.58
2023-08-29T05:10:42.321Z,13.59
2023-08-29T05:13:10.231Z,13.56
2023-08-29T05:15:42.140Z,13.56
2023-08-29T05:18:11.900Z,13.55
2023-08-29T05:20:39.988Z,13.60
2023-08-29T05:23:07.822Z,13.53
2023-08-29T05:25:38.642Z,13.64
2023-08-29T05:28:08.732Z,13.60
2023-08-29T05:30:37.077Z,13.55
2023-08-29T05:33:05.200Z,13.53
2023-08-29T05:35:33.368Z,13.63
2023-08-29T05:38:01.257Z,13.63
2023-08-29T05:40:29.192Z,13.59
2023-08-29T05:42:58.418Z,13.68
2023-08-29T05:45:26.273Z,13.65
2023-08-29T05:47:54.269Z,13.62
2023-08-29T05:50:22.162Z,13.68
2023-08-29T05:52:50.139Z,13.63
2023-08-29T05:55:18.512Z,13.72
2023-08-29T05:57:47.012Z,13.72
2023-08-29T06:00:20.255Z,13.57
2023-08-29T06:02:49.658Z,13.63
2023-08-29T06:05:18.477Z,13.70
2023-08-29T06:07:47.541Z,13.71
2023-08-29T06:10:15.738Z,13.70
2023-08-29T06:12:43.624Z,13.69
2023-08-29T06:15:11.984Z,13.72
2023-08-29T06:17:42.129Z,13.63
2023-08-29T06:20:12.350Z,13.71
2023-08-29T06:22:41.052Z,13.62
2023-08-29T06:25:10.717Z,13.67
2023-08-29T06:27:38.857Z,13.60
2023-08-29T06:30:08.335Z,13.67
2023-08-29T06:32:36.534Z,13.58
2023-08-29T06:35:08.761Z,13.61
2023-08-29T06:37:37.444Z,13.59
2023-08-29T06:40:06.977Z,13.62
2023-08-29T06:42:34.850Z,13.68
2023-08-29T06:45:02.707Z,13.63
2023-08-29T06:47:30.661Z,13.63
2023-08-29T06:49:58.593Z,13.66
2023-08-29T06:52:28.609Z,13.75
2023-08-29T06:54:56.560Z,13.77
2023-08-29T06:57:24.398Z,13.80
2023-08-29T06:59:52.249Z,13.74
2023-08-29T07:02:20.119Z,13.80
2023-08-29T07:04:48.538Z,13.76
2023-08-29T07:07:16.914Z,13.82
2023-08-29T07:09:46.054Z,13.82
2023-08-29T07:12:13.896Z,13.83
2023-08-29T07:14:41.769Z,13.78
2023-08-29T07:17:10.860Z,13.80
2023-08-29T07:19:39.752Z,13.81
2023-08-29T07:22:22.768Z,13.78
2023-08-29T07:24:53.995Z,13.79
2023-08-29T07:27:21.810Z,13.79
2023-08-29T07:29:49.805Z,13.80
2023-08-29T07:32:17.774Z,13.73
2023-08-29T07:34:45.616Z,13.78
2023-08-29T07:37:13.529Z,13.79
2023-08-29T07:39:41.467Z,13.80
2023-08-29T07:42:11.114Z,13.81
2023-08-29T07:44:38.981Z,13.85
2023-08-29T07:47:14.412Z,13.84
2023-08-29T07:49:43.368Z,13.90
2023-08-29T07:52:11.885Z,13.86
2023-08-29T07:54:40.809Z,13.90
2023-08-29T07:57:10.981Z,13.89
2023-08-29T07:59:38.909Z,13.91
2023-08-29T08:02:07.183Z,14.01
2023-08-29T08:04:35.142Z,13.88
2023-08-29T08:07:04.058Z,13.99
2023-08-29T08:09:31.901Z,13.99
2023-08-29T08:11:59.790Z,13.98
2023-08-29T08:14:28.986Z,14.12
2023-08-29T08:16:56.983Z,14.03
2023-08-29T08:19:25.509Z,14.03
2023-08-29T08:21:53.758Z,14.09
2023-08-29T08:24:23.210Z,14.16
2023-08-29T08:26:51.363Z,14.17
2023-08-29T08:29:19.230Z,14.15
2023-08-29T08:31:49.884Z,14.22
2023-08-29T08:34:17.804Z,14.10
2023-08-29T08:36:46.288Z,14.21
2023-08-29T08:39:14.187Z,14.19
2023-08-29T08:41:42.521Z,14.19
2023-08-29T08:44:11.679Z,14.15
2023-08-29T08:46:40.373Z,14.22
2023-08-29T08:49:09.906Z,14.31
2023-08-29T08:51:39.899Z,14.20
2023-08-29T08:54:08.405Z,14.31
2023-08-29T08:56:36.832Z,14.28
2023-08-29T08:59:05.821Z,14.18
2023-08-29T09:01:33.803Z,14.21
2023-08-29T09:04:02.010Z,14.40
2023-08-29T09:06:31.617Z,14.50
2023-08-29T09:09:15.955Z,14.44
2023-08-29T09:11:45.167Z,14.57
2023-08-29T09:14:14.181Z,14.62
2023-08-29T09:16:42.208Z,14.66
2023-08-29T09:19:10.947Z,14.72
2023-08-29T09:21:45.323Z,14.76
2023-08-29T09:24:13.927Z,14.75
2023-08-29T09:26:42.328Z,14.72
2023-08-29T09:29:20.006Z,14.73
2023-08-29T09:31:48.745Z,14.73
2023-08-29T09:34:30.664Z,14.85
2023-08-29T09:37:00.724Z,14.84
2023-08-29T09:39:28.866Z,14.88
2023-08-29T09:42:01.729Z,14.89
2023-08-29T09:44:29.740Z,14.86
2023-08-29T09:46:58.275Z,14.91
2023-08-29T09:49:32.486Z,14.99
2023-08-29T09:52:04.053Z,14.92
2023-08-29T09:54:34.998Z,14.96
2023-08-29T09:57:07.425Z,14.97
2023-08-29T09:59:39.090Z,14.98
2023-08-29T10:02:07.432Z,14.98
2023-08-29T10:04:38.459Z,15.00
2023-08-29T10:07:08.195Z,15.03
2023-08-29T10:09:38.187Z,14.97
2023-08-29T10:12:07.932Z,15.07
2023-08-29T10:14:36.341Z,15.13
2023-08-29T10:17:08.488Z,15.10
2023-08-29T10:19:39.777Z,14.98
2023-08-29T10:22:09.494Z,15.00
2023-08-29T10:24:39.079Z,15.00
2023-08-29T10:27:07.874Z,14.98
2023-08-29T10:29:35.904Z,15.01
2023-08-29T10:32:05.141Z,15.18
2023-08-29T10:34:33.075Z,15.12
2023-08-29T10:37:01.705Z,15.05
2023-08-29T10:39:31.949Z,15.25
2023-08-29T10:41:59.772Z,15.29
2023-08-29T10:44:44.444Z,15.17
2023-08-29T10:47:17.067Z,15.18
2023-08-29T10:49:45.761Z,15.33
2023-08-29T10:52:14.984Z,15.11
2023-08-29T10:54:44.285Z,15.21
2023-08-29T10:57:29.695Z,15.45
2023-08-29T10:59:58.157Z,15.60
2023-08-29T11:02:28.206Z,15.66
2023-08-29T11:05:12.603Z,15.75
2023-08-29T11:07:42.919Z,15.71
2023-08-29T11:10:17.093Z,15.81
2023-08-29T11:13:07.221Z,15.60
2023-08-29T11:16:09.487Z,15.61
2023-08-29T11:18:37.805Z,15.69
2023-08-29T11:21:11.187Z,15.81
2023-08-29T11:23:41.331Z,15.75
2023-08-29T11:26:12.319Z,15.79
2023-08-29T11:28:42.717Z,15.86
2023-08-29T11:31:11.479Z,15.79
2023-08-29T11:33:39.510Z,15.87
2023-08-29T11:36:11.028Z,15.89
2023-08-29T11:38:39.276Z,15.95
2023-08-29T11:41:10.397Z,15.96
2023-08-29T11:44:17.167Z,15.84
2023-08-29T11:46:42.227Z,15.84
2023-08-29T11:49:14.317Z,15.88
2023-08-29T11:51:42.288Z,15.89
2023-08-29T11:54:42.675Z,15.99
2023-08-29T11:57:13.679Z,15.92
2023-08-29T11:59:44.235Z,15.88
2023-08-29T12:02:18.589Z,15.85
2023-08-29T12:04:48.397Z,15.79
2023-08-29T12:07:17.792Z,15.83
2023-08-29T12:09:47.542Z,15.83
2023-08-29T12:12:30.295Z,15.78
2023-08-29T12:14:59.586Z,15.75
2023-08-29T12:17:37.872Z,15.67
2023-08-29T12:20:21.234Z,15.76
2023-08-29T12:22:50.970Z,15.74
2023-08-29T12:25:20.000Z,15.74
2023-08-29T12:27:48.905Z,15.79
2023-08-29T12:30:19.157Z,15.85
2023-08-29T12:32:48.540Z,15.85
2023-08-29T12:35:18.413Z,15.78
2023-08-29T12:37:47.060Z,15.67
2023-08-29T12:40:16.700Z,15.55
2023-08-29T12:42:45.016Z,15.73
2023-08-29T12:45:13.001Z,15.71
2023-08-29T12:47:44.033Z,15.78
2023-08-29T12:50:15.607Z,15.67
2023-08-29T12:52:43.963Z,15.71
2023-08-29T12:55:13.281Z,15.70
2023-08-29T12:57:41.438Z,15.71
2023-08-29T13:00:10.882Z,15.67
2023-08-29T13:02:38.805Z,15.71
2023-08-29T13:05:08.761Z,15.74
2023-08-29T13:07:36.886Z,15.68
2023-08-29T13:10:06.371Z,15.70
2023-08-29T13:12:34.321Z,15.78
2023-08-29T13:15:02.180Z,15.78
2023-08-29T13:17:30.856Z,15.61
2023-08-29T13:19:59.276Z,15.53
2023-08-29T13:22:29.216Z,15.65
2023-08-29T13:24:58.029Z,15.66
2023-08-29T13:27:25.859Z,15.62
2023-08-29T13:29:53.729Z,15.59
2023-08-29T13:32:21.569Z,15.64
2023-08-29T13:34:49.457Z,15.67
2023-08-29T13:37:17.258Z,15.62
2023-08-29T13:39:47.161Z,15.68
2023-08-29T13:42:16.965Z,15.69
2023-08-29T13:44:45.608Z,15.73
2023-08-29T13:47:13.515Z,15.71
2023-08-29T13:49:41.424Z,15.73
2023-08-29T13:52:09.569Z,15.74
2023-08-29T13:54:37.746Z,15.79
2023-08-29T13:57:07.866Z,15.82
2023-08-29T13:59:35.682Z,15.82
2023-08-29T14:11:51.530Z,15.97
2023-08-29T14:14:21.268Z,16.00
2023-08-29T14:16:49.700Z,16.03
2023-08-29T14:19:21.760Z,16.06
2023-08-29T14:21:50.335Z,16.12
2023-08-29T14:24:18.620Z,16.18
2023-08-29T14:26:47.257Z,16.10
2023-08-29T14:29:15.619Z,16.19
2023-08-29T14:31:45.265Z,16.25
2023-08-29T14:34:13.889Z,16.27
2023-08-29T14:36:42.166Z,16.23
2023-08-29T14:39:10.354Z,16.33
2023-08-29T14:41:38.568Z,16.37
2023-08-29T14:44:07.108Z,16.49
2023-08-29T14:46:46.026Z,16.41
2023-08-29T14:49:16.415Z,16.48
2023-08-29T14:51:44.683Z,16.40
2023-08-29T14:54:12.967Z,16.52
2023-08-29T14:56:41.208Z,16.50
2023-08-29T14:59:09.607Z,16.54
2023-08-29T15:01:38.947Z,16.52
2023-08-29T15:04:08.572Z,16.66
2023-08-29T15:06:37.082Z,16.62
2023-08-29T15:09:07.898Z,16.65
2023-08-29T15:11:37.300Z,16.65
2023-08-29T15:14:06.698Z,16.69
2023-08-29T15:16:36.319Z,16.71
2023-08-29T15:19:04.628Z,16.73
2023-08-29T15:21:34.265Z,16.74
2023-08-29T15:24:02.451Z,16.77
2023-08-29T15:26:30.672Z,16.79
2023-08-29T15:28:59.081Z,16.73
2023-08-29T15:31:26.396Z,16.72
2023-08-29T15:34:10.329Z,16.70
2023-08-29T15:36:40.011Z,16.80
2023-08-29T15:39:08.859Z,16.80
2023-08-29T15:41:52.993Z,16.72
2023-08-29T15:44:21.238Z,16.77
2023-08-29T15:46:52.526Z,16.73
2023-08-29T15:49:20.719Z,16.73
2023-08-29T15:51:50.344Z,16.71
2023-08-29T15:54:18.622Z,16.70
2023-08-29T15:56:46.997Z,16.68
2023-08-29T15:59:15.278Z,16.64
2023-08-29T16:01:43.560Z,16.69
2023-08-29T16:04:11.755Z,16.66
2023-08-29T16:06:40.095Z,16.62
2023-08-29T16:09:09.861Z,16.66
2023-08-29T16:11:38.127Z,16.67
2023-08-29T16:14:07.559Z,16.63
2023-08-29T16:16:36.278Z,16.60
2023-08-29T16:19:04.487Z,16.61
2023-08-29T16:21:32.778Z,16.61
2023-08-29T16:24:04.052Z,16.61
2023-08-29T16:26:33.887Z,16.67
2023-08-29T16:29:22.410Z,16.66
2023-08-29T16:31:50.758Z,16.66
2023-08-29T16:34:18.884Z,16.66
2023-08-29T16:36:47.136Z,16.66
2023-08-29T16:39:15.662Z,16.68
2023-08-29T16:41:45.375Z,16.67
2023-08-29T16:44:13.625Z,16.66
2023-08-29T16:46:41.901Z,16.64
2023-08-29T16:49:10.213Z,16.62
2023-08-29T16:51:38.542Z,16.64
2023-08-29T16:54:07.418Z,16.60
2023-08-29T16:56:35.761Z,16.60
2023-08-29T16:59:05.369Z,16.61
2023-08-29T17:01:33.677Z,16.60
2023-08-29T17:04:01.997Z,16.59
2023-08-29T17:06:30.252Z,16.57
2023-08-29T17:08:58.472Z,16.54
2023-08-29T17:11:26.792Z,16.55
2023-08-29T17:13:55.380Z,16.53
2023-08-29T17:16:25.144Z,16.50
2023-08-29T17:18:53.357Z,16.47
2023-08-29T17:21:38.144Z,16.43
2023-08-29T17:24:07.100Z,16.40
2023-08-29T17:26:35.612Z,16.39
2023-08-29T17:29:03.825Z,16.32
2023-08-29T17:31:34.608Z,16.39
2023-08-29T17:34:03.409Z,16.37
2023-08-29T17:36:31.601Z,16.34
2023-08-29T17:38:59.940Z,16.24
2023-08-29T17:41:29.483Z,16.05
2023-08-29T17:43:57.758Z,16.10
2023-08-29T17:46:26.049Z,16.08
2023-08-29T17:48:55.801Z,15.99
2023-08-29T17:51:24.115Z,16.01
2023-08-29T17:53:52.424Z,15.95
2023-08-29T17:56:20.640Z,15.91
2023-08-29T17:58:52.068Z,15.84
2023-08-29T18:01:20.612Z,15.78
2023-08-29T18:03:48.888Z,15.72
2023-08-29T18:06:25.172Z,15.75
2023-08-29T18:09:10.754Z,15.71
2023-08-29T18:11:39.016Z,15.68
2023-08-29T18:14:07.453Z,15.67
2023-08-29T18:16:36.306Z,15.61
2023-08-29T18:19:04.624Z,15.60
2023-08-29T18:21:34.393Z,15.61
2023-08-29T18:24:02.665Z,15.59
2023-08-29T18:26:32.144Z,15.55
2023-08-29T18:29:00.455Z,15.54
2023-08-29T18:31:29.236Z,15.52
2023-08-29T18:33:57.767Z,15.47
2023-08-29T18:36:26.418Z,15.44
2023-08-29T18:38:57.047Z,15.48
2023-08-29T18:41:25.395Z,15.44
2023-08-29T18:43:54.280Z,15.43
2023-08-29T18:46:42.502Z,15.40
2023-08-29T18:49:10.790Z,15.43
2023-08-29T18:51:39.068Z,15.37
2023-08-29T18:54:28.827Z,15.35
2023-08-29T18:56:57.062Z,15.30
2023-08-29T18:59:25.390Z,15.33
2023-08-29T19:01:53.760Z,15.31
2023-08-29T19:04:22.088Z,15.26
2023-08-29T19:06:50.290Z,15.24
2023-08-29T19:09:18.481Z,15.21
2023-08-29T19:11:48.735Z,15.22
2023-08-29T19:14:16.916Z,15.20
2023-08-29T19:16:45.284Z,15.18
2023-08-29T19:19:13.821Z,15.16
2023-08-29T19:21:42.117Z,15.14
2023-08-29T19:24:10.988Z,15.11
2023-08-29T19:26:40.078Z,15.10
2023-08-29T19:29:10.263Z,15.09
2023-08-29T19:31:53.429Z,15.10
2023-08-29T19:34:21.620Z,15.08
2023-08-29T19:36:49.892Z,15.08
2023-08-29T19:39:18.776Z,15.08
2023-08-29T19:41:47.037Z,15.06
2023-08-29T19:44:18.970Z,15.07
2023-08-29T19:46:47.864Z,15.00
2023-08-29T19:49:16.156Z,15.02
2023-08-29T19:51:44.744Z,14.98
2023-08-29T19:54:16.113Z,15.01
2023-08-29T19:56:44.327Z,15.01
2023-08-29T19:59:12.589Z,15.02
2023-08-29T20:01:44.909Z,15.01
2023-08-29T20:04:13.127Z,14.99
2023-08-29T20:06:43.382Z,14.99
2023-08-29T20:09:12.685Z,14.99
2023-08-29T20:11:41.038Z,14.99
2023-08-29T20:14:09.306Z,15.00
2023-08-29T20:16:37.668Z,14.97
2023-08-29T20:19:07.732Z,14.97
2023-08-29T20:21:56.050Z,14.93
2023-08-29T20:24:24.459Z,14.88
2023-08-29T20:26:53.121Z,14.87
2023-08-29T20:29:37.107Z,14.87
2023-08-29T20:32:05.936Z,14.84
2023-08-29T20:34:39.172Z,14.82
2023-08-29T20:37:07.377Z,14.81
2023-08-29T20:39:36.069Z,14.85
2023-08-29T20:42:04.530Z,14.81
2023-08-29T20:44:33.138Z,14.80
2023-08-29T20:47:01.384Z,14.74
2023-08-29T20:49:29.699Z,14.75
2023-08-29T20:51:59.378Z,14.78
2023-08-29T20:54:27.625Z,14.79
2023-08-29T20:56:55.850Z,14.76
2023-08-29T20:59:24.080Z,14.74
2023-08-29T21:01:52.193Z,14.73
2023-08-29T21:04:20.811Z,14.75
2023-08-29T21:06:51.696Z,14.68
2023-08-29T21:09:22.204Z,14.74
2023-08-29T21:11:50.567Z,14.70
2023-08-29T21:14:18.889Z,14.66
2023-08-29T21:16:48.232Z,14.67
2023-08-29T21:19:17.072Z,14.64
2023-08-29T21:21:45.316Z,14.66
2023-08-29T21:24:13.581Z,14.65
2023-08-29T21:26:43.150Z,14.68
2023-08-29T21:29:45.047Z,14.70
2023-08-29T21:32:13.279Z,14.63
2023-08-29T21:34:41.518Z,14.58
2023-08-29T21:37:10.077Z,14.58
2023-08-29T21:39:38.542Z,14.57
2023-08-29T21:42:08.391Z,14.58
2023-08-29T21:44:36.696Z,14.58
2023-08-29T21:47:25.158Z,14.56
2023-08-29T21:49:53.253Z,14.53
2023-08-29T21:52:21.517Z,14.50
2023-08-29T21:54:49.659Z,14.50
2023-08-29T21:57:39.195Z,14.50
2023-08-29T22:00:10.138Z,14.45
2023-08-29T22:02:39.004Z,14.47
2023-08-29T22:05:07.680Z,14.45
2023-08-29T22:07:36.354Z,14.43
2023-08-29T22:10:04.549Z,14.40
2023-08-29T22:12:32.709Z,14.39
2023-08-29T22:15:02.338Z,14.35
2023-08-29T22:17:30.585Z,14.33
2023-08-29T22:19:59.168Z,14.31
2023-08-29T22:22:27.376Z,14.34
2023-08-29T22:24:55.563Z,14.34
2023-08-29T22:27:38.957Z,14.27
2023-08-29T22:30:10.924Z,14.35
2023-08-29T22:32:42.345Z,14.28
2023-08-29T22:35:11.072Z,14.28
2023-08-29T22:37:39.215Z,14.25
2023-08-29T22:40:08.939Z,14.25
2023-08-29T22:42:37.302Z,14.19
2023-08-29T22:45:06.462Z,14.22
2023-08-29T22:47:36.082Z,14.20
2023-08-29T22:50:04.442Z,14.16
2023-08-29T22:52:33.897Z,14.14
2023-08-29T22:55:20.946Z,14.15
2023-08-29T22:57:51.571Z,14.11
2023-08-29T23:00:21.599Z,14.09
2023-08-29T23:02:51.336Z,14.04
2023-08-29T23:05:19.968Z,13.92
2023-08-29T23:07:48.174Z,13.95
2023-08-29T23:10:18.801Z,13.93
2023-08-29T23:12:47.055Z,13.93
2023-08-29T23:15:16.322Z,13.93
2023-08-29T23:18:00.872Z,13.94
2023-08-29T23:20:29.191Z,13.90
2023-08-29T23:22:57.517Z,13.85
2023-08-29T23:25:25.840Z,13.84
2023-08-29T23:27:53.966Z,13.75
2023-08-29T23:30:22.154Z,13.79
2023-08-29T23:33:06.547Z,13.77
2023-08-29T23:35:34.831Z,13.74
2023-08-29T23:38:03.118Z,13.73
2023-08-29T23:40:31.943Z,13.70
2023-08-29T23:43:00.141Z,13.71
2023-08-29T23:45:28.376Z,13.67
2023-08-29T23:47:56.713Z,13.67
2023-08-29T23:50:26.416Z,13.68
2023-08-29T23:52:54.654Z,13.62
2023-08-29T23:55:23.954Z,13.63
2023-08-29T23:57:52.957Z,13.60
